Accueil
METAR-TAF:

METAR-TAF

Aéroports :

Schwäbisch Hall, Allemagne

latitude: 49-07-06N, longitude: 9-47-02E, altitude: 398 m

Observation

Le bulletin a été fait il y a 31 minutes, à 07:20 UTC
Vent 2 kt de est
Température -2°C
Humidité 100%
Pression 1035 hPa
Visibilité 10 km ou plus

METAR: EDTY 050720Z AUTO 10002KT 9999 // BKN054/// OVC074/// M02/M02 Q1035

Heure: 08:51 (07:51 UTC)

Prévision

Le bulletin a été fait il y a 14 heures et 51 minutes, à 17:00 UTC
Prévision valable du 04 à 18 UTC au 05 à 03 UTC
Vent 3 kt de nord/nord-est
Visibilité 10 km ou plus
Quelques nuages à une hauteur de 2500 ft
Nuages fragmentés à une hauteur de 4000 ft
Probabilité 30% :
Temporairement
du 05 à 01 UTC au 05 à 03 UTC
Visibilité: 3000 m
brume

TAF: EDTY 041700Z 0418/0503 03003KT 9999 FEW025 BKN040 PROB30 TEMPO 0501/0503 3000 BR

Observations et prévisions météorologiques de plus de 4000 aéroports (messages METAR et TAF).

Les stations disponibles sont représentées par des disques jaunes et rouges sur la carte.

Passer la souris dessus pour voir le nom de la station.

Cliquer dessus pour voir les observations et prévisions météorologiques.

Pour changer de carte: cliquez sur les boutons verts avec une croix noire pour zoomer, sur le bouton vert avec un tiret pour effectuer un zoom arrière, ou sur les flèches vertes pour les cartes adjacentes.


METAR-TAF: